Time;durP1;ratioP1;P1;durP2;ratioP2;P2;SDS_P1;SDS_P2;PMS_P1;PMS_P2;Temp;Humidity;BMP_temperature;BMP_pressure;BME280_temperature;BME280_humidity;BME280_pressure;Samples;Min_cycle;Max_cycle;Signal;HPM_P1;HPM_P2
2022/03/25 00:01:00;;;;;;;9.02;2.30;;;;;;;4.86;40.23;101448.13;18367892;32;20085;-63
2022/03/25 00:11:04;;;;;;;5.50;2.08;;;;;;;4.78;41.20;101437.47;18367151;32;20097;-63
2022/03/25 00:21:09;;;;;;;2.40;1.55;;;;;;;4.84;41.78;101442.00;18366787;32;20138;-63
2022/03/25 00:31:12;;;;;;;2.22;2.08;;;;;;;4.29;42.54;101442.50;18366347;32;20383;-63
2022/03/25 00:41:17;;;;;;;3.40;1.23;;;;;;;4.54;42.24;101443.47;18366962;32;20093;-62
2022/03/25 00:51:21;;;;;;;4.68;2.90;;;;;;;4.13;43.98;101456.50;18365390;32;20105;-62
2022/03/25 01:01:26;;;;;;;1.70;1.52;;;;;;;4.15;45.24;101454.84;18364798;32;20093;-62
2022/03/25 01:11:30;;;;;;;4.70;2.20;;;;;;;4.13;44.90;101445.28;18364559;32;20180;-62
2022/03/25 01:21:35;;;;;;;1.90;1.62;;;;;;;3.64;46.63;101449.25;18364810;32;20158;-63
2022/03/25 01:31:39;;;;;;;7.28;1.40;;;;;;;3.68;45.78;101431.38;18373129;32;20359;-62
2022/03/25 01:41:47;;;;;;;2.20;1.90;;;;;;;3.66;46.44;101433.00;18371958;32;20129;-62
2022/03/25 01:51:52;;;;;;;5.15;2.42;;;;;;;2.92;47.99;101444.41;18371631;32;20085;-62
2022/03/25 02:01:57;;;;;;;4.30;2.15;;;;;;;3.01;47.93;101445.62;18371430;32;20097;-62
2022/03/25 02:12:01;;;;;;;5.97;2.05;;;;;;;2.95;48.86;101451.41;18371232;32;20105;-63
2022/03/25 02:22:06;;;;;;;3.45;2.53;;;;;;;2.94;48.88;101453.91;18370345;32;20094;-62
2022/03/25 02:32:10;;;;;;;3.45;1.85;;;;;;;3.22;49.37;101466.38;18369934;32;20090;-62
2022/03/25 02:42:16;;;;;;;1.87;1.75;;;;;;;2.96;50.23;101473.81;18371453;32;20101;-62
2022/03/25 02:52:19;;;;;;;1.20;1.10;;;;;;;2.81;50.38;101483.44;18371042;32;20128;-63
2022/03/25 03:02:24;;;;;;;3.35;2.97;;;;;;;2.52;51.24;101485.50;18370748;32;20112;-62
2022/03/25 03:12:28;;;;;;;2.65;2.15;;;;;;;1.89;54.28;101499.56;18369559;32;20100;-62
2022/03/25 03:22:32;;;;;;;2.10;1.58;;;;;;;1.86;55.36;101495.19;18369368;32;20104;-62
2022/03/25 03:32:36;;;;;;;2.12;1.80;;;;;;;2.33;54.27;101498.34;18368906;32;20119;-62
2022/03/25 03:42:42;;;;;;;3.15;2.40;;;;;;;1.83;55.50;101496.72;18368242;32;20107;-62
2022/03/25 03:52:45;;;;;;;1.98;1.70;;;;;;;1.80;55.75;101500.91;18367901;32;20115;-62
2022/03/25 04:02:50;;;;;;;4.22;1.67;;;;;;;1.77;54.59;101512.72;18367757;32;20089;-62
2022/03/25 04:12:53;;;;;;;2.73;1.40;;;;;;;1.40;58.31;101514.25;18368417;32;20155;-62
2022/03/25 04:22:58;;;;;;;2.78;2.58;;;;;;;1.62;57.87;101502.53;18366696;32;20185;-62
2022/03/25 04:33:02;;;;;;;3.17;1.15;;;;;;;1.54;59.25;101502.09;18366546;32;20153;-62
2022/03/25 04:43:08;;;;;;;5.80;2.75;;;;;;;1.47;56.82;101508.63;18366013;32;20111;-61
2022/03/25 04:53:12;;;;;;;3.07;2.07;;;;;;;1.30;56.35;101509.41;18365231;32;20085;-62
2022/03/25 05:03:17;;;;;;;1.67;1.42;;;;;;;1.46;57.57;101517.16;18372410;32;20116;-62
2022/03/25 05:13:21;;;;;;;2.85;1.80;;;;;;;1.59;58.59;101518.69;18373108;32;20100;-62
2022/03/25 05:23:25;;;;;;;2.55;1.73;;;;;;;2.04;58.04;101531.28;18372427;32;20101;-62
2022/03/25 05:33:28;;;;;;;2.72;1.30;;;;;;;2.61;57.25;101543.53;18372232;32;20158;-62
2022/03/25 05:43:34;;;;;;;4.68;3.15;;;;;;;3.84;55.23;101540.53;18372021;32;20101;-63
2022/03/25 05:53:37;;;;;;;2.83;2.22;;;;;;;6.22;49.46;101542.81;18371340;32;20089;-63
2022/03/25 06:03:42;;;;;;;6.18;2.72;;;;;;;9.14;42.52;101539.66;18371323;32;20108;-63
2022/03/25 06:13:46;;;;;;;9.88;3.90;;;;;;;11.59;37.41;101525.50;18370574;32;20105;-64
2022/03/25 06:23:50;;;;;;;7.70;3.47;;;;;;;14.57;31.59;101521.87;18370803;32;20108;-64
2022/03/25 06:33:54;;;;;;;12.05;4.95;;;;;;;16.41;27.47;101522.84;18370740;32;20098;-64
2022/03/25 06:44:01;;;;;;;7.32;3.40;;;;;;;16.45;28.09;101533.34;18370174;32;20166;-65
2022/03/25 06:54:05;;;;;;;10.50;4.50;;;;;;;20.36;21.63;101525.16;18368100;32;20097;-65
2022/03/25 07:04:10;;;;;;;10.93;3.97;;;;;;;21.34;19.15;101526.97;18369605;32;20115;-65
2022/03/25 07:14:13;;;;;;;9.60;4.10;;;;;;;19.11;22.47;101526.19;18368924;32;20429;-65
2022/03/25 07:24:18;;;;;;;11.05;4.10;;;;;;;16.87;25.88;101540.00;18368674;32;20097;-65
2022/03/25 07:34:21;;;;;;;12.77;3.85;;;;;;;18.11;24.64;101537.59;18368508;32;20089;-65
2022/03/25 07:44:26;;;;;;;11.88;4.53;;;;;;;19.44;22.51;101538.75;18368269;32;20525;-65
2022/03/25 07:54:29;;;;;;;7.37;2.97;;;;;;;20.17;21.96;101545.97;18310137;32;20097;-65
2022/03/25 08:04:34;;;;;;;9.95;3.47;;;;;;;22.68;18.89;101533.44;18302463;32;20090;-65
2022/03/25 08:14:37;;;;;;;10.88;4.32;;;;;;;20.81;19.79;101531.09;18354903;32;20144;-66
2022/03/25 08:35:04;;;;;;;5.15;2.72;;;;;;;19.11;22.77;101513.84;18365204;32;20082;-65
2022/03/25 08:45:09;;;;;;;7.22;3.03;;;;;;;18.75;22.02;101518.91;18366531;32;20123;-65
2022/03/25 08:55:13;;;;;;;8.60;2.70;;;;;;;19.29;21.24;101511.69;18335056;32;20094;-64
2022/03/25 09:05:18;;;;;;;8.75;3.30;;;;;;;18.70;20.87;101505.78;18300907;32;20116;-65
2022/03/25 09:15:22;;;;;;;8.43;3.58;;;;;;;20.09;19.86;101485.19;18299710;32;20102;-65
2022/03/25 09:25:27;;;;;;;9.60;3.78;;;;;;;19.60;19.49;101497.81;18309225;32;20135;-66
2022/03/25 09:35:30;;;;;;;8.82;3.53;;;;;;;21.12;18.00;101489.59;18361060;32;20111;-66
2022/03/25 09:45:35;;;;;;;12.23;4.12;;;;;;;23.51;15.91;101483.34;18364428;32;20148;-67
2022/03/25 09:55:42;;;;;;;10.15;4.12;;;;;;;27.36;12.36;101456.28;18358199;32;20094;-67
2022/03/25 10:05:58;;;;;;;11.50;4.28;;;;;;;30.18;10.21;101444.34;18306046;32;20868;-67
2022/03/25 10:16:27;;;;;;;10.40;4.22;;;;;;;26.40;13.57;101448.94;18305947;32;20374;-66
2022/03/25 10:26:38;;;;;;;11.18;4.45;;;;;;;26.57;13.58;101445.38;18305363;32;20093;-66
2022/03/25 10:36:41;;;;;;;9.95;3.62;;;;;;;26.49;13.62;101438.72;18306946;32;20118;-66
2022/03/25 10:46:48;;;;;;;10.52;4.07;;;;;;;26.56;14.26;101426.72;18321027;32;20125;-66
2022/03/25 10:57:01;;;;;;;7.60;3.05;;;;;;;24.58;14.85;101422.88;18338993;32;20152;-66
2022/03/25 11:07:06;;;;;;;7.32;2.60;;;;;;;24.47;15.30;101423.37;18365649;32;20137;-66
2022/03/25 11:17:09;;;;;;;7.35;3.05;;;;;;;22.53;17.16;101415.97;18333349;32;20162;-66
2022/03/25 11:27:19;;;;;;;6.82;2.40;;;;;;;22.41;17.27;101406.59;18333853;32;20108;-66
2022/03/25 11:37:24;;;;;;;6.80;2.25;;;;;;;22.30;17.25;101396.34;18332692;32;20155;-66
2022/03/25 11:47:32;;;;;;;5.55;2.95;;;;;;;20.54;18.45;101389.50;18331695;32;20085;-66
2022/03/25 11:57:36;;;;;;;5.10;2.28;;;;;;;21.29;17.38;101374.91;18364562;32;20093;-66
2022/03/25 12:08:19;;;;;;;6.30;2.17;;;;;;;20.47;18.25;101375.50;18323362;32;20089;-66
2022/03/25 12:18:44;;;;;;;3.37;2.25;;;;;;;21.11;18.20;101369.25;18327894;32;20121;-66
2022/03/25 12:28:52;;;;;;;6.90;2.20;;;;;;;20.21;18.11;101353.25;18349166;32;156959;-65
2022/03/25 12:38:55;;;;;;;4.30;1.98;;;;;;;20.86;18.06;101339.94;18366344;32;20461;-66
2022/03/25 12:49:04;;;;;;;4.45;1.65;;;;;;;19.80;18.02;101340.16;18365277;32;20111;-66
2022/03/25 12:59:08;;;;;;;3.05;1.55;;;;;;;20.70;17.45;101331.56;18361777;32;20093;-65
2022/03/25 13:09:12;;;;;;;6.70;2.33;;;;;;;20.28;18.38;101328.28;18361520;32;20343;-65
2022/03/25 13:19:16;;;;;;;5.65;2.00;;;;;;;20.68;17.32;101317.44;18365895;32;20090;-66
2022/03/25 13:29:21;;;;;;;4.05;1.62;;;;;;;20.90;17.50;101320.34;18372472;32;20093;-65
2022/03/25 13:39:32;;;;;;;3.62;1.70;;;;;;;21.32;16.68;101311.06;18371024;32;20116;-66
2022/03/25 13:49:37;;;;;;;4.75;1.70;;;;;;;21.03;16.82;101297.81;18370988;32;20097;-66
2022/03/25 13:59:43;;;;;;;3.90;1.60;;;;;;;20.86;16.90;101301.00;18371761;32;20164;-65
2022/03/25 14:09:55;;;;;;;5.43;1.42;;;;;;;21.48;15.80;101293.69;18371242;32;20108;-65
2022/03/25 14:20:01;;;;;;;7.90;1.83;;;;;;;20.76;15.79;101288.91;18371300;32;20112;-66
2022/03/25 14:30:07;;;;;;;5.22;2.05;;;;;;;20.77;16.37;101280.00;18370076;32;20097;-65
2022/03/25 14:40:11;;;;;;;6.65;2.08;;;;;;;21.75;16.54;101272.44;18370408;32;20616;-66
2022/03/25 14:50:17;;;;;;;5.53;2.08;;;;;;;21.44;15.91;101275.25;18370101;32;20111;-66
2022/03/25 15:00:20;;;;;;;5.03;2.00;;;;;;;21.83;16.43;101266.84;18370157;32;20105;-66
2022/03/25 15:10:25;;;;;;;6.80;2.20;;;;;;;21.14;16.02;101260.28;18369703;32;20101;-66
2022/03/25 15:20:29;;;;;;;5.90;2.30;;;;;;;21.67;16.51;101255.91;18369419;32;20105;-66
2022/03/25 15:40:55;;;;;;;6.03;1.70;;;;;;;21.67;16.81;101255.91;18367620;32;20146;-66
2022/03/25 15:51:00;;;;;;;5.30;2.25;;;;;;;21.65;16.73;101246.22;18368749;32;20134;-66
2022/03/25 16:01:04;;;;;;;6.47;2.80;;;;;;;21.36;16.48;101259.59;18368238;32;20139;-66
2022/03/25 16:11:09;;;;;;;4.30;2.00;;;;;;;21.14;17.34;101259.44;18363280;32;20101;-65
2022/03/25 16:21:12;;;;;;;5.80;2.03;;;;;;;20.96;17.85;101266.19;18367222;32;20097;-66
2022/03/25 16:31:18;;;;;;;4.72;2.47;;;;;;;20.57;18.48;101265.59;18367565;32;20387;-65
2022/03/25 16:41:34;;;;;;;6.12;2.42;;;;;;;20.15;19.37;101265.94;18366311;32;20089;-65
2022/03/25 16:51:39;;;;;;;6.85;2.70;;;;;;;19.22;21.17;101280.69;18366815;32;20367;-66
2022/03/25 17:01:43;;;;;;;9.35;2.37;;;;;;;18.55;22.68;101282.19;18373262;32;20162;-65
2022/03/25 17:11:48;;;;;;;5.18;1.83;;;;;;;17.77;23.66;101282.78;18372212;32;20393;-65
2022/03/25 17:22:11;;;;;;;3.05;2.03;;;;;;;16.88;24.23;101304.41;18373185;32;20098;-66
2022/03/25 17:32:36;;;;;;;3.20;1.80;;;;;;;16.32;25.77;101320.94;18334091;32;20116;-66
2022/03/25 17:42:39;;;;;;;4.45;1.80;;;;;;;15.52;27.14;101333.94;18329744;32;20116;-66
2022/03/25 17:52:44;;;;;;;9.15;3.65;;;;;;;14.70;29.12;101345.78;18334624;32;20119;-65
2022/03/25 18:02:49;;;;;;;5.10;1.70;;;;;;;14.21;30.04;101355.56;18338214;32;20093;-65
2022/03/25 18:12:54;;;;;;;4.37;1.75;;;;;;;13.72;31.14;101361.75;18334588;32;20086;-65
2022/03/25 18:22:57;;;;;;;2.10;1.65;;;;;;;13.18;32.12;101371.28;18370357;32;20456;-65
2022/03/25 18:33:03;;;;;;;3.05;1.40;;;;;;;12.84;32.35;101381.63;18345752;32;20101;-65
2022/03/25 18:43:08;;;;;;;2.53;1.45;;;;;;;12.68;32.20;101379.81;18344876;32;20094;-65
2022/03/25 18:53:13;;;;;;;2.78;1.27;;;;;;;12.32;32.20;101377.88;18368711;32;20183;-65
2022/03/25 19:03:16;;;;;;;5.35;1.77;;;;;;;12.03;32.77;101398.63;18369876;32;20406;-64
2022/03/25 19:13:23;;;;;;;8.60;2.87;;;;;;;11.93;31.47;101405.47;18320729;32;20074;-64
2022/03/25 19:23:26;;;;;;;7.22;2.70;;;;;;;12.00;32.66;101411.62;18235973;32;20165;-64
2022/03/25 19:33:31;;;;;;;8.70;3.83;;;;;;;11.82;34.40;101409.75;18290667;32;20089;-64
2022/03/25 19:43:35;;;;;;;9.25;3.95;;;;;;;11.74;34.53;101415.78;18302976;32;20124;-64
2022/03/25 19:53:40;;;;;;;10.90;4.60;;;;;;;11.56;35.83;101421.72;18301606;32;20414;-64
2022/03/25 20:03:43;;;;;;;9.07;3.92;;;;;;;11.58;35.48;101421.75;18302731;32;20098;-64
2022/03/25 20:13:49;;;;;;;4.55;2.22;;;;;;;11.69;34.72;101433.19;18303462;32;20105;-64
2022/03/25 20:23:52;;;;;;;9.95;3.53;;;;;;;10.96;39.80;101448.06;18303092;32;20108;-65
2022/03/25 20:33:57;;;;;;;11.43;4.03;;;;;;;11.45;39.72;101462.56;18302410;32;20464;-64
2022/03/25 20:44:00;;;;;;;9.02;4.53;;;;;;;11.49;39.77;101473.09;18302551;32;20078;-64
2022/03/25 20:54:05;;;;;;;7.05;4.22;;;;;;;11.40;38.55;101465.13;18301676;32;20094;-64
2022/03/25 21:04:08;;;;;;;12.48;4.30;;;;;;;11.00;39.50;101478.56;18301380;32;20119;-64
2022/03/25 21:14:13;;;;;;;13.35;3.67;;;;;;;10.68;40.65;101477.25;18299244;32;20112;-65
2022/03/25 21:24:17;;;;;;;11.52;4.95;;;;;;;9.97;40.90;101487.41;18298751;32;20156;-64
2022/03/25 21:34:21;;;;;;;11.73;5.00;;;;;;;9.92;41.06;101482.97;18299591;32;20097;-64
2022/03/25 21:44:26;;;;;;;6.45;3.65;;;;;;;9.37;41.77;101505.41;18305185;32;20097;-64
2022/03/25 21:54:33;;;;;;;15.95;5.32;;;;;;;9.32;43.29;101514.84;18300470;32;20086;-65
2022/03/25 22:04:36;;;;;;;10.68;4.80;;;;;;;9.43;42.28;101526.34;18307809;32;20114;-65
2022/03/25 22:14:41;;;;;;;8.98;4.68;;;;;;;9.38;42.16;101525.41;18307172;32;20090;-64
2022/03/25 22:24:44;;;;;;;10.70;4.10;;;;;;;8.97;42.19;101549.69;18306699;32;20192;-64
2022/03/25 22:34:49;;;;;;;12.63;4.60;;;;;;;8.97;41.87;101554.91;18306875;32;20152;-64
2022/03/25 22:44:52;;;;;;;6.10;3.55;;;;;;;8.57;44.00;101562.63;18306459;32;20119;-63
2022/03/25 22:54:57;;;;;;;8.27;2.97;;;;;;;7.58;46.27;101565.19;18305731;32;20098;-65
2022/03/25 23:05:02;;;;;;;6.07;3.35;;;;;;;7.72;45.58;101573.38;18306124;32;20093;-64
2022/03/25 23:15:08;;;;;;;13.57;3.95;;;;;;;7.58;45.65;101576.44;18305619;32;20085;-64
2022/03/25 23:25:11;;;;;;;10.25;4.12;;;;;;;7.67;45.44;101586.25;18306429;32;20104;-70
2022/03/25 23:35:16;;;;;;;6.12;4.20;;;;;;;7.46;45.32;101587.38;18305394;32;20119;-63
2022/03/25 23:45:19;;;;;;;7.62;4.53;;;;;;;7.24;46.56;101600.53;18305130;32;20141;-63
2022/03/25 23:55:27;;;;;;;9.13;3.28;;;;;;;7.19;46.95;101603.00;18304940;32;20094;-63
